sensor_id;sensor_type;location;lat;lon;timestamp;P1;durP1;ratioP1;P2;durP2;ratioP2
39674;SDS011;27790;50.840;4.386;2023-05-17T00:01:31;14.95;;;4.10;;
39674;SDS011;27790;50.840;4.386;2023-05-17T00:03:57;11.88;;;3.17;;
39674;SDS011;27790;50.840;4.386;2023-05-17T00:06:23;10.55;;;3.53;;
39674;SDS011;27790;50.840;4.386;2023-05-17T00:08:48;17.15;;;3.67;;
39674;SDS011;27790;50.840;4.386;2023-05-17T00:11:14;19.13;;;4.80;;
39674;SDS011;27790;50.840;4.386;2023-05-17T00:13:40;11.02;;;3.75;;
39674;SDS011;27790;50.840;4.386;2023-05-17T00:16:06;12.20;;;3.47;;
39674;SDS011;27790;50.840;4.386;2023-05-17T00:18:32;16.45;;;4.30;;
39674;SDS011;27790;50.840;4.386;2023-05-17T00:20:58;12.10;;;4.65;;
39674;SDS011;27790;50.840;4.386;2023-05-17T00:23:23;12.75;;;4.63;;
39674;SDS011;27790;50.840;4.386;2023-05-17T00:25:49;14.40;;;4.53;;
39674;SDS011;27790;50.840;4.386;2023-05-17T00:28:15;13.43;;;4.32;;
39674;SDS011;27790;50.840;4.386;2023-05-17T00:30:40;17.90;;;4.03;;
39674;SDS011;27790;50.840;4.386;2023-05-17T00:33:06;18.75;;;4.60;;
39674;SDS011;27790;50.840;4.386;2023-05-17T00:35:31;18.85;;;5.00;;
39674;SDS011;27790;50.840;4.386;2023-05-17T00:37:57;8.45;;;3.90;;
39674;SDS011;27790;50.840;4.386;2023-05-17T00:40:23;15.05;;;4.47;;
39674;SDS011;27790;50.840;4.386;2023-05-17T00:42:49;9.40;;;3.50;;
39674;SDS011;27790;50.840;4.386;2023-05-17T00:45:14;30.02;;;4.80;;
39674;SDS011;27790;50.840;4.386;2023-05-17T00:47:40;17.38;;;3.78;;
39674;SDS011;27790;50.840;4.386;2023-05-17T00:50:06;17.50;;;5.13;;
39674;SDS011;27790;50.840;4.386;2023-05-17T00:52:32;18.25;;;4.32;;
39674;SDS011;27790;50.840;4.386;2023-05-17T00:54:59;19.08;;;4.82;;
39674;SDS011;27790;50.840;4.386;2023-05-17T00:57:25;10.75;;;4.13;;
39674;SDS011;27790;50.840;4.386;2023-05-17T00:59:51;13.45;;;5.07;;
39674;SDS011;27790;50.840;4.386;2023-05-17T01:02:16;15.50;;;4.72;;
39674;SDS011;27790;50.840;4.386;2023-05-17T01:04:42;18.10;;;4.72;;
39674;SDS011;27790;50.840;4.386;2023-05-17T01:07:08;14.43;;;3.88;;
39674;SDS011;27790;50.840;4.386;2023-05-17T01:09:35;16.77;;;4.82;;
39674;SDS011;27790;50.840;4.386;2023-05-17T01:12:06;11.27;;;4.60;;
39674;SDS011;27790;50.840;4.386;2023-05-17T01:17:23;22.48;;;5.20;;
39674;SDS011;27790;50.840;4.386;2023-05-17T01:28:13;22.23;;;5.28;;
39674;SDS011;27790;50.840;4.386;2023-05-17T01:30:42;13.57;;;5.63;;
39674;SDS011;27790;50.840;4.386;2023-05-17T01:33:11;13.80;;;4.97;;
39674;SDS011;27790;50.840;4.386;2023-05-17T01:35:37;15.13;;;5.30;;
39674;SDS011;27790;50.840;4.386;2023-05-17T01:38:02;19.25;;;6.15;;
39674;SDS011;27790;50.840;4.386;2023-05-17T01:40:28;12.00;;;5.30;;
39674;SDS011;27790;50.840;4.386;2023-05-17T01:43:01;14.73;;;5.30;;
39674;SDS011;27790;50.840;4.386;2023-05-17T01:45:37;15.63;;;5.60;;
39674;SDS011;27790;50.840;4.386;2023-05-17T01:48:15;14.63;;;5.13;;
39674;SDS011;27790;50.840;4.386;2023-05-17T01:50:47;24.13;;;6.88;;
39674;SDS011;27790;50.840;4.386;2023-05-17T01:53:24;19.08;;;5.20;;
39674;SDS011;27790;50.840;4.386;2023-05-17T01:56:06;28.45;;;6.88;;
39674;SDS011;27790;50.840;4.386;2023-05-17T01:58:36;14.95;;;6.60;;
39674;SDS011;27790;50.840;4.386;2023-05-17T02:01:09;23.98;;;6.57;;
39674;SDS011;27790;50.840;4.386;2023-05-17T02:03:35;17.30;;;5.32;;
39674;SDS011;27790;50.840;4.386;2023-05-17T02:06:00;16.52;;;5.35;;
39674;SDS011;27790;50.840;4.386;2023-05-17T02:08:26;27.73;;;7.25;;
39674;SDS011;27790;50.840;4.386;2023-05-17T02:10:52;10.55;;;5.57;;
39674;SDS011;27790;50.840;4.386;2023-05-17T02:13:17;12.13;;;5.32;;
39674;SDS011;27790;50.840;4.386;2023-05-17T02:15:43;19.95;;;6.00;;
39674;SDS011;27790;50.840;4.386;2023-05-17T02:18:08;16.00;;;6.38;;
39674;SDS011;27790;50.840;4.386;2023-05-17T02:20:35;19.45;;;6.95;;
39674;SDS011;27790;50.840;4.386;2023-05-17T02:23:01;18.42;;;6.15;;
39674;SDS011;27790;50.840;4.386;2023-05-17T02:25:26;18.48;;;6.15;;
39674;SDS011;27790;50.840;4.386;2023-05-17T02:27:52;19.90;;;6.10;;
39674;SDS011;27790;50.840;4.386;2023-05-17T02:30:17;21.05;;;6.95;;
39674;SDS011;27790;50.840;4.386;2023-05-17T02:32:46;15.98;;;6.32;;
39674;SDS011;27790;50.840;4.386;2023-05-17T02:35:12;24.60;;;6.70;;
39674;SDS011;27790;50.840;4.386;2023-05-17T02:37:37;26.58;;;7.80;;
39674;SDS011;27790;50.840;4.386;2023-05-17T02:40:04;24.73;;;6.13;;
39674;SDS011;27790;50.840;4.386;2023-05-17T02:42:33;21.95;;;7.50;;
39674;SDS011;27790;50.840;4.386;2023-05-17T02:45:02;21.30;;;6.70;;
39674;SDS011;27790;50.840;4.386;2023-05-17T02:47:28;20.75;;;6.47;;
39674;SDS011;27790;50.840;4.386;2023-05-17T02:49:54;13.52;;;6.43;;
39674;SDS011;27790;50.840;4.386;2023-05-17T02:52:20;21.60;;;6.38;;
39674;SDS011;27790;50.840;4.386;2023-05-17T02:54:45;17.23;;;6.88;;
39674;SDS011;27790;50.840;4.386;2023-05-17T02:57:11;18.50;;;6.95;;
39674;SDS011;27790;50.840;4.386;2023-05-17T02:59:40;28.55;;;7.88;;
39674;SDS011;27790;50.840;4.386;2023-05-17T03:02:06;20.30;;;6.55;;
39674;SDS011;27790;50.840;4.386;2023-05-17T03:04:31;20.83;;;7.20;;
39674;SDS011;27790;50.840;4.386;2023-05-17T03:06:57;19.80;;;6.80;;
39674;SDS011;27790;50.840;4.386;2023-05-17T03:09:23;18.02;;;8.75;;
39674;SDS011;27790;50.840;4.386;2023-05-17T03:11:49;21.23;;;7.60;;
39674;SDS011;27790;50.840;4.386;2023-05-17T03:14:14;17.70;;;6.40;;
39674;SDS011;27790;50.840;4.386;2023-05-17T03:16:40;20.38;;;8.45;;
39674;SDS011;27790;50.840;4.386;2023-05-17T03:19:06;19.48;;;9.00;;
39674;SDS011;27790;50.840;4.386;2023-05-17T03:21:31;24.50;;;7.45;;
39674;SDS011;27790;50.840;4.386;2023-05-17T03:23:57;18.50;;;7.45;;
39674;SDS011;27790;50.840;4.386;2023-05-17T03:26:22;26.85;;;7.60;;
39674;SDS011;27790;50.840;4.386;2023-05-17T03:28:48;24.92;;;7.53;;
39674;SDS011;27790;50.840;4.386;2023-05-17T03:31:14;23.45;;;7.68;;
39674;SDS011;27790;50.840;4.386;2023-05-17T03:33:41;16.98;;;7.00;;
39674;SDS011;27790;50.840;4.386;2023-05-17T03:36:07;26.65;;;8.20;;
39674;SDS011;27790;50.840;4.386;2023-05-17T03:38:32;22.52;;;7.93;;
39674;SDS011;27790;50.840;4.386;2023-05-17T03:40:58;25.65;;;8.40;;
39674;SDS011;27790;50.840;4.386;2023-05-17T03:43:24;28.38;;;9.00;;
39674;SDS011;27790;50.840;4.386;2023-05-17T03:45:50;21.00;;;7.30;;
39674;SDS011;27790;50.840;4.386;2023-05-17T03:48:15;20.92;;;7.47;;
39674;SDS011;27790;50.840;4.386;2023-05-17T03:50:41;16.55;;;7.65;;
39674;SDS011;27790;50.840;4.386;2023-05-17T03:53:06;18.50;;;6.65;;
39674;SDS011;27790;50.840;4.386;2023-05-17T03:55:33;20.27;;;7.35;;
39674;SDS011;27790;50.840;4.386;2023-05-17T03:57:59;19.58;;;8.05;;
39674;SDS011;27790;50.840;4.386;2023-05-17T04:00:24;22.08;;;7.53;;
39674;SDS011;27790;50.840;4.386;2023-05-17T04:02:50;30.85;;;7.47;;
39674;SDS011;27790;50.840;4.386;2023-05-17T04:05:16;20.25;;;7.10;;
39674;SDS011;27790;50.840;4.386;2023-05-17T04:07:42;24.15;;;7.18;;
39674;SDS011;27790;50.840;4.386;2023-05-17T04:10:08;20.63;;;6.93;;
39674;SDS011;27790;50.840;4.386;2023-05-17T04:12:34;26.65;;;9.10;;
39674;SDS011;27790;50.840;4.386;2023-05-17T04:15:00;18.85;;;7.38;;
39674;SDS011;27790;50.840;4.386;2023-05-17T04:17:26;22.98;;;8.68;;
39674;SDS011;27790;50.840;4.386;2023-05-17T04:19:52;30.38;;;8.00;;
39674;SDS011;27790;50.840;4.386;2023-05-17T04:22:19;18.52;;;6.53;;
39674;SDS011;27790;50.840;4.386;2023-05-17T04:24:44;22.00;;;7.55;;
39674;SDS011;27790;50.840;4.386;2023-05-17T04:27:10;34.85;;;8.55;;
39674;SDS011;27790;50.840;4.386;2023-05-17T04:29:36;20.77;;;6.50;;
39674;SDS011;27790;50.840;4.386;2023-05-17T04:32:02;20.30;;;6.65;;
39674;SDS011;27790;50.840;4.386;2023-05-17T04:34:27;26.05;;;6.47;;
39674;SDS011;27790;50.840;4.386;2023-05-17T04:36:55;18.02;;;6.25;;
39674;SDS011;27790;50.840;4.386;2023-05-17T04:39:21;20.42;;;6.82;;
39674;SDS011;27790;50.840;4.386;2023-05-17T04:41:47;16.77;;;6.70;;
39674;SDS011;27790;50.840;4.386;2023-05-17T04:44:13;18.05;;;6.20;;
39674;SDS011;27790;50.840;4.386;2023-05-17T04:46:38;19.98;;;6.95;;
39674;SDS011;27790;50.840;4.386;2023-05-17T04:49:05;21.08;;;6.45;;
39674;SDS011;27790;50.840;4.386;2023-05-17T04:51:31;26.30;;;6.65;;
39674;SDS011;27790;50.840;4.386;2023-05-17T04:53:57;18.98;;;6.60;;
39674;SDS011;27790;50.840;4.386;2023-05-17T04:56:25;17.40;;;6.30;;
39674;SDS011;27790;50.840;4.386;2023-05-17T04:58:51;15.23;;;5.65;;
39674;SDS011;27790;50.840;4.386;2023-05-17T05:01:17;16.63;;;6.38;;
39674;SDS011;27790;50.840;4.386;2023-05-17T05:03:43;21.23;;;7.03;;
39674;SDS011;27790;50.840;4.386;2023-05-17T05:06:08;22.05;;;7.13;;
39674;SDS011;27790;50.840;4.386;2023-05-17T05:08:34;16.90;;;6.75;;
39674;SDS011;27790;50.840;4.386;2023-05-17T05:11:00;12.93;;;6.10;;
39674;SDS011;27790;50.840;4.386;2023-05-17T05:13:25;17.33;;;6.38;;
39674;SDS011;27790;50.840;4.386;2023-05-17T05:15:51;27.02;;;6.65;;
39674;SDS011;27790;50.840;4.386;2023-05-17T05:18:16;24.02;;;7.72;;
39674;SDS011;27790;50.840;4.386;2023-05-17T05:20:42;12.05;;;5.35;;
39674;SDS011;27790;50.840;4.386;2023-05-17T05:23:08;17.45;;;5.90;;
39674;SDS011;27790;50.840;4.386;2023-05-17T05:25:34;14.48;;;6.40;;
39674;SDS011;27790;50.840;4.386;2023-05-17T05:28:01;20.65;;;6.75;;
39674;SDS011;27790;50.840;4.386;2023-05-17T05:30:27;21.98;;;6.72;;
39674;SDS011;27790;50.840;4.386;2023-05-17T05:32:52;21.77;;;6.18;;
39674;SDS011;27790;50.840;4.386;2023-05-17T05:35:18;28.42;;;6.40;;
39674;SDS011;27790;50.840;4.386;2023-05-17T05:37:44;17.50;;;5.82;;
39674;SDS011;27790;50.840;4.386;2023-05-17T05:40:10;19.63;;;5.55;;
39674;SDS011;27790;50.840;4.386;2023-05-17T05:42:36;22.80;;;6.63;;
39674;SDS011;27790;50.840;4.386;2023-05-17T05:45:02;15.52;;;5.75;;
39674;SDS011;27790;50.840;4.386;2023-05-17T05:47:28;16.85;;;5.60;;
39674;SDS011;27790;50.840;4.386;2023-05-17T05:49:53;20.65;;;5.47;;
39674;SDS011;27790;50.840;4.386;2023-05-17T05:52:19;12.57;;;5.63;;
39674;SDS011;27790;50.840;4.386;2023-05-17T05:54:44;16.67;;;6.07;;
39674;SDS011;27790;50.840;4.386;2023-05-17T05:57:10;21.40;;;5.35;;
39674;SDS011;27790;50.840;4.386;2023-05-17T05:59:36;11.52;;;5.38;;
39674;SDS011;27790;50.840;4.386;2023-05-17T06:02:02;11.82;;;5.13;;
39674;SDS011;27790;50.840;4.386;2023-05-17T06:04:27;19.63;;;5.65;;
39674;SDS011;27790;50.840;4.386;2023-05-17T06:06:54;13.75;;;5.25;;
39674;SDS011;27790;50.840;4.386;2023-05-17T06:09:19;19.13;;;6.25;;
39674;SDS011;27790;50.840;4.386;2023-05-17T06:11:45;19.90;;;5.40;;
39674;SDS011;27790;50.840;4.386;2023-05-17T06:14:10;25.50;;;6.18;;
39674;SDS011;27790;50.840;4.386;2023-05-17T06:16:36;14.80;;;5.88;;
39674;SDS011;27790;50.840;4.386;2023-05-17T06:19:02;19.42;;;5.50;;
39674;SDS011;27790;50.840;4.386;2023-05-17T06:21:28;21.48;;;6.07;;
39674;SDS011;27790;50.840;4.386;2023-05-17T06:23:54;14.57;;;4.97;;
39674;SDS011;27790;50.840;4.386;2023-05-17T06:26:19;21.55;;;5.63;;
39674;SDS011;27790;50.840;4.386;2023-05-17T06:28:45;17.88;;;5.95;;
39674;SDS011;27790;50.840;4.386;2023-05-17T06:31:11;16.30;;;6.00;;
39674;SDS011;27790;50.840;4.386;2023-05-17T06:33:36;12.52;;;5.60;;
39674;SDS011;27790;50.840;4.386;2023-05-17T06:36:02;12.93;;;5.15;;
39674;SDS011;27790;50.840;4.386;2023-05-17T06:38:28;22.52;;;6.13;;
39674;SDS011;27790;50.840;4.386;2023-05-17T06:40:53;22.05;;;6.10;;
39674;SDS011;27790;50.840;4.386;2023-05-17T06:43:20;18.88;;;5.72;;
39674;SDS011;27790;50.840;4.386;2023-05-17T06:45:46;18.98;;;5.80;;
39674;SDS011;27790;50.840;4.386;2023-05-17T06:48:12;15.50;;;5.95;;
39674;SDS011;27790;50.840;4.386;2023-05-17T06:50:37;22.77;;;6.57;;
39674;SDS011;27790;50.840;4.386;2023-05-17T06:53:03;14.95;;;4.97;;
39674;SDS011;27790;50.840;4.386;2023-05-17T06:55:29;19.38;;;4.88;;
39674;SDS011;27790;50.840;4.386;2023-05-17T06:57:55;17.38;;;4.47;;
39674;SDS011;27790;50.840;4.386;2023-05-17T07:00:20;21.33;;;6.15;;
39674;SDS011;27790;50.840;4.386;2023-05-17T07:02:46;17.27;;;5.22;;
39674;SDS011;27790;50.840;4.386;2023-05-17T07:05:12;13.60;;;5.28;;
39674;SDS011;27790;50.840;4.386;2023-05-17T07:07:37;10.45;;;5.00;;
39674;SDS011;27790;50.840;4.386;2023-05-17T07:10:04;15.63;;;4.28;;
39674;SDS011;27790;50.840;4.386;2023-05-17T07:12:30;11.52;;;4.50;;
39674;SDS011;27790;50.840;4.386;2023-05-17T07:14:56;14.10;;;5.00;;
39674;SDS011;27790;50.840;4.386;2023-05-17T07:17:23;18.27;;;5.93;;
39674;SDS011;27790;50.840;4.386;2023-05-17T07:19:48;18.80;;;5.95;;
39674;SDS011;27790;50.840;4.386;2023-05-17T07:22:17;14.50;;;4.72;;
39674;SDS011;27790;50.840;4.386;2023-05-17T07:24:44;19.60;;;5.45;;
39674;SDS011;27790;50.840;4.386;2023-05-17T07:27:12;12.68;;;4.75;;
39674;SDS011;27790;50.840;4.386;2023-05-17T07:29:37;13.68;;;5.00;;
39674;SDS011;27790;50.840;4.386;2023-05-17T07:32:06;17.77;;;5.63;;
39674;SDS011;27790;50.840;4.386;2023-05-17T07:34:34;14.68;;;4.40;;
39674;SDS011;27790;50.840;4.386;2023-05-17T07:37:00;13.43;;;4.93;;
39674;SDS011;27790;50.840;4.386;2023-05-17T07:39:26;19.42;;;5.03;;
39674;SDS011;27790;50.840;4.386;2023-05-17T07:41:52;15.13;;;4.90;;
39674;SDS011;27790;50.840;4.386;2023-05-17T07:44:18;19.25;;;6.05;;
39674;SDS011;27790;50.840;4.386;2023-05-17T07:46:45;10.80;;;5.45;;
39674;SDS011;27790;50.840;4.386;2023-05-17T07:49:11;16.63;;;7.00;;
39674;SDS011;27790;50.840;4.386;2023-05-17T07:51:38;13.23;;;5.75;;
39674;SDS011;27790;50.840;4.386;2023-05-17T07:54:03;16.73;;;5.30;;
39674;SDS011;27790;50.840;4.386;2023-05-17T07:56:29;15.82;;;6.50;;
39674;SDS011;27790;50.840;4.386;2023-05-17T07:58:55;18.38;;;5.65;;
39674;SDS011;27790;50.840;4.386;2023-05-17T08:01:21;18.08;;;6.95;;
39674;SDS011;27790;50.840;4.386;2023-05-17T08:03:47;15.10;;;6.28;;
39674;SDS011;27790;50.840;4.386;2023-05-17T08:06:13;21.42;;;6.00;;
39674;SDS011;27790;50.840;4.386;2023-05-17T08:08:40;20.60;;;5.80;;
39674;SDS011;27790;50.840;4.386;2023-05-17T08:11:06;15.40;;;6.47;;
39674;SDS011;27790;50.840;4.386;2023-05-17T08:13:32;15.57;;;5.47;;
39674;SDS011;27790;50.840;4.386;2023-05-17T08:15:57;19.13;;;5.95;;
39674;SDS011;27790;50.840;4.386;2023-05-17T08:18:27;13.05;;;5.57;;
39674;SDS011;27790;50.840;4.386;2023-05-17T08:20:56;15.50;;;5.35;;
39674;SDS011;27790;50.840;4.386;2023-05-17T08:23:22;8.10;;;5.20;;
39674;SDS011;27790;50.840;4.386;2023-05-17T08:25:47;9.90;;;4.90;;
39674;SDS011;27790;50.840;4.386;2023-05-17T08:28:13;12.45;;;4.28;;
39674;SDS011;27790;50.840;4.386;2023-05-17T08:30:39;8.93;;;4.35;;
39674;SDS011;27790;50.840;4.386;2023-05-17T08:33:05;17.85;;;4.97;;
39674;SDS011;27790;50.840;4.386;2023-05-17T08:35:33;11.98;;;4.25;;
39674;SDS011;27790;50.840;4.386;2023-05-17T08:37:58;12.60;;;4.47;;
39674;SDS011;27790;50.840;4.386;2023-05-17T08:40:24;17.48;;;4.72;;
39674;SDS011;27790;50.840;4.386;2023-05-17T08:42:51;10.75;;;5.38;;
39674;SDS011;27790;50.840;4.386;2023-05-17T08:45:17;13.95;;;5.10;;
39674;SDS011;27790;50.840;4.386;2023-05-17T08:47:43;16.65;;;4.45;;
39674;SDS011;27790;50.840;4.386;2023-05-17T08:50:10;8.80;;;4.63;;
39674;SDS011;27790;50.840;4.386;2023-05-17T08:52:36;21.30;;;5.35;;
39674;SDS011;27790;50.840;4.386;2023-05-17T08:55:04;12.27;;;4.25;;
39674;SDS011;27790;50.840;4.386;2023-05-17T08:57:33;15.85;;;5.32;;
39674;SDS011;27790;50.840;4.386;2023-05-17T09:00:05;11.65;;;4.40;;
39674;SDS011;27790;50.840;4.386;2023-05-17T09:02:36;7.63;;;3.78;;
39674;SDS011;27790;50.840;4.386;2023-05-17T09:05:02;10.45;;;3.35;;
39674;SDS011;27790;50.840;4.386;2023-05-17T09:07:30;12.63;;;4.20;;
39674;SDS011;27790;50.840;4.386;2023-05-17T09:09:56;13.05;;;4.70;;
39674;SDS011;27790;50.840;4.386;2023-05-17T09:12:22;10.10;;;3.88;;
39674;SDS011;27790;50.840;4.386;2023-05-17T09:14:48;9.10;;;3.80;;
39674;SDS011;27790;50.840;4.386;2023-05-17T09:17:16;10.68;;;3.92;;
39674;SDS011;27790;50.840;4.386;2023-05-17T09:19:46;12.00;;;5.03;;
39674;SDS011;27790;50.840;4.386;2023-05-17T09:22:13;7.90;;;3.78;;
39674;SDS011;27790;50.840;4.386;2023-05-17T09:24:48;7.78;;;3.17;;
39674;SDS011;27790;50.840;4.386;2023-05-17T09:27:15;5.93;;;2.65;;
39674;SDS011;27790;50.840;4.386;2023-05-17T09:29:43;10.60;;;3.35;;
39674;SDS011;27790;50.840;4.386;2023-05-17T09:32:18;7.53;;;2.92;;
39674;SDS011;27790;50.840;4.386;2023-05-17T09:34:49;10.18;;;4.13;;
39674;SDS011;27790;50.840;4.386;2023-05-17T09:37:16;11.75;;;3.55;;
39674;SDS011;27790;50.840;4.386;2023-05-17T09:39:45;11.95;;;3.42;;
39674;SDS011;27790;50.840;4.386;2023-05-17T09:42:12;6.85;;;3.10;;
39674;SDS011;27790;50.840;4.386;2023-05-17T09:49:54;13.18;;;3.67;;
39674;SDS011;27790;50.840;4.386;2023-05-17T09:52:22;6.82;;;2.65;;
39674;SDS011;27790;50.840;4.386;2023-05-17T09:54:54;12.43;;;3.17;;
39674;SDS011;27790;50.840;4.386;2023-05-17T09:57:21;9.10;;;3.50;;
39674;SDS011;27790;50.840;4.386;2023-05-17T09:59:47;10.02;;;3.13;;
39674;SDS011;27790;50.840;4.386;2023-05-17T10:02:17;9.43;;;3.10;;
39674;SDS011;27790;50.840;4.386;2023-05-17T10:04:47;10.02;;;2.90;;
39674;SDS011;27790;50.840;4.386;2023-05-17T10:07:16;10.70;;;2.83;;
39674;SDS011;27790;50.840;4.386;2023-05-17T10:09:43;9.93;;;2.60;;
39674;SDS011;27790;50.840;4.386;2023-05-17T10:12:17;6.20;;;2.30;;
39674;SDS011;27790;50.840;4.386;2023-05-17T10:14:46;9.02;;;2.53;;
39674;SDS011;27790;50.840;4.386;2023-05-17T10:17:12;7.60;;;2.35;;
39674;SDS011;27790;50.840;4.386;2023-05-17T10:19:39;9.48;;;3.03;;
39674;SDS011;27790;50.840;4.386;2023-05-17T10:22:06;10.85;;;2.95;;
39674;SDS011;27790;50.840;4.386;2023-05-17T10:24:33;11.07;;;2.47;;
39674;SDS011;27790;50.840;4.386;2023-05-17T10:27:02;10.68;;;3.10;;
39674;SDS011;27790;50.840;4.386;2023-05-17T10:29:31;5.90;;;2.20;;
39674;SDS011;27790;50.840;4.386;2023-05-17T10:31:57;9.73;;;3.45;;
39674;SDS011;27790;50.840;4.386;2023-05-17T10:34:23;9.73;;;2.97;;
39674;SDS011;27790;50.840;4.386;2023-05-17T10:36:51;15.50;;;3.08;;
39674;SDS011;27790;50.840;4.386;2023-05-17T10:39:18;11.57;;;3.33;;
39674;SDS011;27790;50.840;4.386;2023-05-17T10:41:46;6.93;;;2.85;;
39674;SDS011;27790;50.840;4.386;2023-05-17T10:44:16;8.30;;;2.50;;
39674;SDS011;27790;50.840;4.386;2023-05-17T10:49:22;4.75;;;2.25;;
39674;SDS011;27790;50.840;4.386;2023-05-17T10:51:50;11.25;;;2.10;;
39674;SDS011;27790;50.840;4.386;2023-05-17T10:54:16;8.68;;;1.70;;
39674;SDS011;27790;50.840;4.386;2023-05-17T11:04:31;7.22;;;2.05;;
39674;SDS011;27790;50.840;4.386;2023-05-17T11:15:15;7.78;;;2.53;;
39674;SDS011;27790;50.840;4.386;2023-05-17T11:20:08;5.05;;;1.80;;
39674;SDS011;27790;50.840;4.386;2023-05-17T11:23:03;8.52;;;2.20;;
39674;SDS011;27790;50.840;4.386;2023-05-17T11:25:31;6.75;;;2.45;;
39674;SDS011;27790;50.840;4.386;2023-05-17T11:27:59;12.23;;;1.98;;
39674;SDS011;27790;50.840;4.386;2023-05-17T11:30:30;4.80;;;1.65;;
39674;SDS011;27790;50.840;4.386;2023-05-17T11:33:03;7.47;;;1.83;;
39674;SDS011;27790;50.840;4.386;2023-05-17T11:35:37;5.53;;;2.03;;
39674;SDS011;27790;50.840;4.386;2023-05-17T11:40:47;6.50;;;2.38;;
39674;SDS011;27790;50.840;4.386;2023-05-17T11:43:20;6.25;;;1.77;;
39674;SDS011;27790;50.840;4.386;2023-05-17T11:45:52;8.13;;;2.38;;
39674;SDS011;27790;50.840;4.386;2023-05-17T11:48:19;11.05;;;2.30;;
39674;SDS011;27790;50.840;4.386;2023-05-17T11:50:46;9.27;;;1.88;;
39674;SDS011;27790;50.840;4.386;2023-05-17T11:53:13;6.30;;;1.95;;
39674;SDS011;27790;50.840;4.386;2023-05-17T11:55:40;9.77;;;1.92;;
39674;SDS011;27790;50.840;4.386;2023-05-17T11:58:07;6.45;;;1.77;;
39674;SDS011;27790;50.840;4.386;2023-05-17T12:00:34;10.48;;;2.20;;
39674;SDS011;27790;50.840;4.386;2023-05-17T12:05:43;5.85;;;1.83;;
39674;SDS011;27790;50.840;4.386;2023-05-17T12:08:10;7.05;;;2.13;;
39674;SDS011;27790;50.840;4.386;2023-05-17T12:10:35;6.20;;;1.77;;
39674;SDS011;27790;50.840;4.386;2023-05-17T12:13:01;9.38;;;2.40;;
39674;SDS011;27790;50.840;4.386;2023-05-17T12:15:29;7.97;;;2.22;;
39674;SDS011;27790;50.840;4.386;2023-05-17T12:17:55;8.75;;;1.83;;
39674;SDS011;27790;50.840;4.386;2023-05-17T12:20:21;8.95;;;1.63;;
39674;SDS011;27790;50.840;4.386;2023-05-17T12:22:53;7.38;;;1.98;;
39674;SDS011;27790;50.840;4.386;2023-05-17T12:25:20;6.72;;;1.85;;
39674;SDS011;27790;50.840;4.386;2023-05-17T12:27:49;7.93;;;1.70;;
39674;SDS011;27790;50.840;4.386;2023-05-17T12:30:15;7.13;;;1.67;;
39674;SDS011;27790;50.840;4.386;2023-05-17T12:32:41;11.25;;;2.33;;
39674;SDS011;27790;50.840;4.386;2023-05-17T12:35:08;7.18;;;2.22;;
39674;SDS011;27790;50.840;4.386;2023-05-17T12:37:35;8.15;;;2.47;;
39674;SDS011;27790;50.840;4.386;2023-05-17T12:40:01;7.35;;;1.90;;
39674;SDS011;27790;50.840;4.386;2023-05-17T12:42:29;4.00;;;1.63;;
39674;SDS011;27790;50.840;4.386;2023-05-17T12:44:58;8.63;;;2.22;;
39674;SDS011;27790;50.840;4.386;2023-05-17T12:47:24;6.28;;;1.63;;
39674;SDS011;27790;50.840;4.386;2023-05-17T12:49:56;7.78;;;1.58;;
39674;SDS011;27790;50.840;4.386;2023-05-17T12:52:24;4.22;;;1.48;;
39674;SDS011;27790;50.840;4.386;2023-05-17T12:54:50;5.32;;;2.25;;
39674;SDS011;27790;50.840;4.386;2023-05-17T12:57:16;6.80;;;1.88;;
39674;SDS011;27790;50.840;4.386;2023-05-17T12:59:49;6.82;;;1.55;;
39674;SDS011;27790;50.840;4.386;2023-05-17T13:02:17;7.43;;;1.63;;
39674;SDS011;27790;50.840;4.386;2023-05-17T13:04:44;5.43;;;1.50;;
39674;SDS011;27790;50.840;4.386;2023-05-17T13:07:10;4.90;;;1.25;;
39674;SDS011;27790;50.840;4.386;2023-05-17T13:09:44;9.05;;;1.60;;
39674;SDS011;27790;50.840;4.386;2023-05-17T13:12:16;5.35;;;1.27;;
39674;SDS011;27790;50.840;4.386;2023-05-17T13:14:44;4.65;;;1.48;;
39674;SDS011;27790;50.840;4.386;2023-05-17T13:19:48;12.18;;;2.28;;
39674;SDS011;27790;50.840;4.386;2023-05-17T13:22:13;6.70;;;2.28;;
39674;SDS011;27790;50.840;4.386;2023-05-17T13:24:40;7.70;;;1.95;;
39674;SDS011;27790;50.840;4.386;2023-05-17T13:27:07;8.93;;;2.38;;
39674;SDS011;27790;50.840;4.386;2023-05-17T13:29:34;6.38;;;1.83;;
39674;SDS011;27790;50.840;4.386;2023-05-17T13:32:01;8.00;;;1.67;;
39674;SDS011;27790;50.840;4.386;2023-05-17T13:34:27;5.32;;;1.50;;
39674;SDS011;27790;50.840;4.386;2023-05-17T13:36:53;3.97;;;1.73;;
39674;SDS011;27790;50.840;4.386;2023-05-17T13:39:21;3.42;;;1.55;;
39674;SDS011;27790;50.840;4.386;2023-05-17T13:41:47;4.20;;;1.13;;
39674;SDS011;27790;50.840;4.386;2023-05-17T13:44:12;5.25;;;1.80;;
39674;SDS011;27790;50.840;4.386;2023-05-17T13:46:38;9.85;;;2.45;;
39674;SDS011;27790;50.840;4.386;2023-05-17T13:49:04;7.53;;;2.22;;
39674;SDS011;27790;50.840;4.386;2023-05-17T13:51:32;2.53;;;1.42;;
39674;SDS011;27790;50.840;4.386;2023-05-17T13:53:58;3.92;;;1.58;;
39674;SDS011;27790;50.840;4.386;2023-05-17T13:56:24;7.82;;;1.90;;
39674;SDS011;27790;50.840;4.386;2023-05-17T13:58:50;5.53;;;1.77;;
39674;SDS011;27790;50.840;4.386;2023-05-17T14:01:16;5.30;;;1.77;;
39674;SDS011;27790;50.840;4.386;2023-05-17T14:03:43;5.25;;;1.45;;
39674;SDS011;27790;50.840;4.386;2023-05-17T14:06:09;6.63;;;1.58;;
39674;SDS011;27790;50.840;4.386;2023-05-17T14:08:34;5.10;;;1.55;;
39674;SDS011;27790;50.840;4.386;2023-05-17T14:11:00;4.72;;;1.48;;
39674;SDS011;27790;50.840;4.386;2023-05-17T14:13:26;4.93;;;1.27;;
39674;SDS011;27790;50.840;4.386;2023-05-17T14:15:52;5.47;;;1.63;;
39674;SDS011;27790;50.840;4.386;2023-05-17T14:18:17;4.53;;;1.58;;
39674;SDS011;27790;50.840;4.386;2023-05-17T14:20:43;2.72;;;1.63;;
39674;SDS011;27790;50.840;4.386;2023-05-17T14:23:09;7.90;;;2.10;;
39674;SDS011;27790;50.840;4.386;2023-05-17T14:25:34;5.18;;;1.65;;
39674;SDS011;27790;50.840;4.386;2023-05-17T14:28:00;7.88;;;1.65;;
39674;SDS011;27790;50.840;4.386;2023-05-17T14:30:26;6.72;;;1.42;;
39674;SDS011;27790;50.840;4.386;2023-05-17T14:32:51;4.90;;;1.80;;
39674;SDS011;27790;50.840;4.386;2023-05-17T14:35:17;6.15;;;1.52;;
39674;SDS011;27790;50.840;4.386;2023-05-17T14:37:42;2.53;;;1.63;;
39674;SDS011;27790;50.840;4.386;2023-05-17T14:40:08;12.45;;;1.98;;
39674;SDS011;27790;50.840;4.386;2023-05-17T14:42:36;4.80;;;1.80;;
39674;SDS011;27790;50.840;4.386;2023-05-17T14:45:02;5.90;;;1.73;;
39674;SDS011;27790;50.840;4.386;2023-05-17T14:47:28;5.13;;;1.92;;
39674;SDS011;27790;50.840;4.386;2023-05-17T14:49:53;6.78;;;2.22;;
39674;SDS011;27790;50.840;4.386;2023-05-17T14:52:19;4.32;;;2.10;;
39674;SDS011;27790;50.840;4.386;2023-05-17T14:54:45;3.90;;;1.58;;
39674;SDS011;27790;50.840;4.386;2023-05-17T14:57:10;9.50;;;1.65;;
39674;SDS011;27790;50.840;4.386;2023-05-17T14:59:36;7.20;;;1.75;;
39674;SDS011;27790;50.840;4.386;2023-05-17T15:02:02;5.57;;;1.60;;
39674;SDS011;27790;50.840;4.386;2023-05-17T15:04:29;6.78;;;1.90;;
39674;SDS011;27790;50.840;4.386;2023-05-17T15:06:54;3.35;;;1.27;;
39674;SDS011;27790;50.840;4.386;2023-05-17T15:09:21;5.43;;;1.80;;
39674;SDS011;27790;50.840;4.386;2023-05-17T15:11:48;3.58;;;1.50;;
39674;SDS011;27790;50.840;4.386;2023-05-17T15:14:14;2.90;;;1.55;;
39674;SDS011;27790;50.840;4.386;2023-05-17T15:16:46;7.00;;;2.33;;
39674;SDS011;27790;50.840;4.386;2023-05-17T15:19:12;7.53;;;1.70;;
39674;SDS011;27790;50.840;4.386;2023-05-17T15:21:39;3.30;;;1.63;;